CPX406 Details

Departure: Nashville International Airport (KBNA)
Arrival: Chicago/Rockford International Airport (KRFD)
Route: HGGRD PXV J73 GUIDO JOT


Current Weather Information
KBNA 212153Z 18010KT 10SM SCT060 BKN250 32/16 A2987 RMK AO2 SLP109 T03220156
KRFD 212154Z 08020G32KT 10SM OVC060 13/04 A2995 RMK AO2 PK WND 07032/2150 PRESFR SLP145 T01280044